Time;durP1;ratioP1;P1;durP2;ratioP2;P2;SDS_P1;SDS_P2;PMS_P1;PMS_P2;Temp;Humidity;BMP_temperature;BMP_pressure;BME280_temperature;BME280_humidity;BME280_pressure;Samples;Min_cycle;Max_cycle;Signal;HPM_P1;HPM_P2
2022/03/18 00:01:01;;;;;;;21.98;14.93;;;11.70;48.40;;;;;;6276400;22;20438;-69
2022/03/18 00:03:27;;;;;;;25.38;15.75;;;11.80;48.30;;;;;;6276327;22;20008;-70
2022/03/18 00:05:53;;;;;;;26.60;15.45;;;11.80;48.30;;;;;;6276206;22;20007;-69
2022/03/18 00:08:18;;;;;;;24.27;15.13;;;11.80;48.60;;;;;;6275907;22;20003;-69
2022/03/18 00:10:44;;;;;;;24.77;15.65;;;11.80;48.60;;;;;;6275879;22;20077;-69
2022/03/18 00:13:10;;;;;;;19.63;14.85;;;11.70;48.60;;;;;;6276258;22;20007;-69
2022/03/18 00:15:37;;;;;;;24.52;15.82;;;11.70;48.50;;;;;;6276265;22;20000;-71
2022/03/18 00:18:02;;;;;;;18.70;15.25;;;11.70;48.50;;;;;;6275986;22;20011;-71
2022/03/18 00:20:28;;;;;;;23.35;15.80;;;11.70;49.20;;;;;;6276347;22;20000;-70
2022/03/18 00:22:54;;;;;;;23.70;15.57;;;11.60;49.50;;;;;;6275983;22;20000;-69
2022/03/18 00:25:20;;;;;;;27.90;16.63;;;11.60;49.70;;;;;;6276343;22;20004;-71
2022/03/18 00:27:46;;;;;;;20.33;15.18;;;11.70;48.80;;;;;;6276353;22;20011;-71
2022/03/18 00:30:16;;;;;;;26.75;16.15;;;11.60;48.70;;;;;;6276094;22;20370;-69
2022/03/18 00:32:43;;;;;;;24.45;15.57;;;11.60;48.90;;;;;;6276036;22;19996;-70
2022/03/18 00:35:10;;;;;;;21.38;15.00;;;11.60;48.80;;;;;;6276172;22;20075;-69
2022/03/18 00:37:36;;;;;;;21.75;14.85;;;11.60;49.80;;;;;;6276054;22;20004;-70
2022/03/18 00:40:03;;;;;;;26.17;15.60;;;;;;;;;;6276068;22;19996;-69
2022/03/18 00:42:31;;;;;;;21.70;15.02;;;11.50;48.70;;;;;;6275642;22;20415;-69
2022/03/18 00:44:58;;;;;;;23.52;15.85;;;11.50;49.90;;;;;;6276091;22;20008;-69
2022/03/18 00:52:52;;;;;;;22.98;15.38;;;11.40;49.80;;;;;;6278241;22;20015;-70
2022/03/18 00:55:18;;;;;;;23.35;16.08;;;11.30;49.40;;;;;;6278257;22;20329;-69
2022/03/18 00:57:44;;;;;;;19.77;15.18;;;11.30;49.90;;;;;;6277769;22;20307;-69
2022/03/18 01:00:11;;;;;;;21.00;16.27;;;11.30;50.40;;;;;;6278214;22;20426;-70
2022/03/18 01:02:36;;;;;;;23.17;16.10;;;11.30;50.20;;;;;;6278037;22;20390;-71
2022/03/18 01:05:03;;;;;;;29.08;16.65;;;11.20;50.30;;;;;;6277700;22;20058;-69
2022/03/18 01:07:31;;;;;;;26.65;16.33;;;11.20;50.00;;;;;;6277540;22;20023;-71
2022/03/18 01:09:57;;;;;;;21.13;15.43;;;11.10;50.20;;;;;;6277539;22;20031;-70
2022/03/18 01:12:24;;;;;;;23.02;15.60;;;11.10;50.50;;;;;;6277710;22;20008;-69
2022/03/18 01:14:50;;;;;;;27.00;17.00;;;11.00;50.70;;;;;;6277706;22;20074;-70
2022/03/18 01:17:15;;;;;;;21.20;15.95;;;11.10;50.90;;;;;;6277853;22;20018;-70
2022/03/18 01:19:41;;;;;;;23.27;15.10;;;11.10;50.50;;;;;;6277907;22;20426;-70
2022/03/18 01:22:10;;;;;;;25.92;16.95;;;11.10;50.80;;;;;;6277731;22;20003;-70
2022/03/18 01:24:37;;;;;;;22.67;15.48;;;11.10;50.60;;;;;;6277989;22;20430;-69
2022/03/18 01:27:07;;;;;;;25.10;16.00;;;11.10;50.80;;;;;;6277667;22;20078;-71
2022/03/18 01:29:33;;;;;;;22.95;15.85;;;11.10;50.40;;;;;;6277548;22;20083;-71
2022/03/18 01:31:59;;;;;;;22.92;16.95;;;11.10;50.20;;;;;;6277845;22;19996;-69
2022/03/18 01:34:25;;;;;;;24.75;14.93;;;;;;;;;;6277293;22;20027;-69
2022/03/18 01:36:51;;;;;;;25.30;15.82;;;11.10;50.10;;;;;;6277111;22;20007;-69
2022/03/18 01:39:17;;;;;;;23.77;15.23;;;11.10;50.60;;;;;;6277516;22;20004;-71
2022/03/18 01:41:43;;;;;;;27.67;16.10;;;11.10;50.60;;;;;;6277452;22;20350;-69
2022/03/18 01:44:10;;;;;;;21.10;15.57;;;11.10;50.70;;;;;;6277719;22;20035;-70
2022/03/18 01:46:39;;;;;;;24.60;16.40;;;11.10;51.10;;;;;;6277910;22;20023;-70
2022/03/18 01:49:06;;;;;;;25.83;14.88;;;11.10;51.00;;;;;;6277265;22;20003;-70
2022/03/18 01:51:33;;;;;;;22.95;15.93;;;11.10;51.00;;;;;;6277019;22;20016;-69
2022/03/18 01:56:44;;;;;;;23.40;16.08;;;11.10;51.00;;;;;;6277693;22;20093;-69
2022/03/18 01:59:13;;;;;;;23.90;15.75;;;11.10;50.80;;;;;;6273827;22;20083;-70
2022/03/18 02:01:39;;;;;;;28.25;15.10;;;11.10;50.90;;;;;;6273861;22;20376;-70
2022/03/18 02:04:05;;;;;;;28.83;16.27;;;11.00;51.00;;;;;;6274759;22;20075;-69
2022/03/18 02:06:31;;;;;;;24.40;15.60;;;11.00;51.10;;;;;;6277213;22;20004;-70
2022/03/18 02:08:56;;;;;;;20.13;15.50;;;11.00;50.90;;;;;;6276796;22;19996;-69
2022/03/18 02:11:23;;;;;;;23.55;16.38;;;11.10;51.30;;;;;;6276691;22;20000;-69
2022/03/18 02:13:50;;;;;;;24.05;16.38;;;11.10;51.10;;;;;;6276904;22;20011;-69
2022/03/18 02:16:16;;;;;;;27.02;17.00;;;11.10;50.90;;;;;;6277241;22;20045;-71
2022/03/18 02:18:41;;;;;;;22.13;17.00;;;11.10;51.30;;;;;;6276920;22;20083;-69
2022/03/18 02:21:08;;;;;;;20.85;15.02;;;11.10;51.30;;;;;;6276368;22;20105;-70
2022/03/18 02:23:34;;;;;;;25.95;16.73;;;11.10;51.20;;;;;;6277236;22;20039;-69
2022/03/18 02:26:00;;;;;;;21.75;16.10;;;11.20;51.30;;;;;;6277206;22;20061;-69
2022/03/18 02:28:26;;;;;;;23.50;16.48;;;11.10;51.50;;;;;;6276735;22;19996;-69
2022/03/18 02:30:51;;;;;;;22.02;16.52;;;11.10;51.60;;;;;;6276745;22;20094;-69
2022/03/18 02:33:17;;;;;;;27.98;16.50;;;11.10;52.00;;;;;;6276887;22;20000;-69
2022/03/18 02:35:43;;;;;;;23.00;16.25;;;11.00;51.90;;;;;;6276744;22;20312;-70
2022/03/18 02:38:09;;;;;;;24.02;17.83;;;11.00;52.00;;;;;;6277116;22;20051;-70
2022/03/18 02:40:34;;;;;;;23.73;17.63;;;11.00;52.00;;;;;;6277491;22;20019;-70
2022/03/18 02:43:00;;;;;;;20.73;15.82;;;10.90;52.60;;;;;;6276345;22;20016;-70
2022/03/18 02:45:26;;;;;;;29.27;16.77;;;10.90;52.70;;;;;;6277209;22;20004;-68
2022/03/18 02:47:52;;;;;;;23.95;16.48;;;10.90;52.40;;;;;;6276921;22;20022;-70
2022/03/18 02:50:17;;;;;;;26.75;16.80;;;11.00;52.60;;;;;;6276872;22;20011;-69
2022/03/18 02:52:44;;;;;;;22.77;16.50;;;10.90;52.60;;;;;;6276634;22;19996;-71
2022/03/18 02:55:10;;;;;;;24.65;17.27;;;10.90;52.70;;;;;;6277093;22;20027;-69
2022/03/18 02:57:37;;;;;;;25.88;16.10;;;11.00;52.10;;;;;;6277079;22;20071;-70
2022/03/18 03:00:05;;;;;;;22.92;16.58;;;11.00;52.70;;;;;;6276662;22;20007;-69
2022/03/18 03:02:31;;;;;;;23.80;16.00;;;11.00;52.20;;;;;;6276532;22;20082;-69
2022/03/18 03:07:59;;;;;;;22.88;15.73;;;11.00;52.50;;;;;;6276609;22;20098;-69
2022/03/18 03:10:33;;;;;;;24.67;15.45;;;11.00;52.20;;;;;;6276418;22;20011;-71
2022/03/18 03:13:01;;;;;;;22.75;15.77;;;10.90;52.80;;;;;;6276725;22;20000;-70
2022/03/18 03:15:27;;;;;;;23.33;15.85;;;11.00;52.00;;;;;;6276662;22;20071;-70
2022/03/18 03:17:53;;;;;;;24.35;16.38;;;11.00;52.20;;;;;;6276291;22;20028;-70
2022/03/18 03:20:20;;;;;;;25.35;15.23;;;10.90;52.70;;;;;;6276701;22;20410;-69
2022/03/18 03:22:45;;;;;;;24.73;15.20;;;10.90;52.90;;;;;;6276557;22;20079;-69
2022/03/18 03:25:11;;;;;;;23.73;16.50;;;10.90;52.80;;;;;;6276499;22;20019;-70
2022/03/18 03:27:37;;;;;;;23.35;15.48;;;10.80;52.90;;;;;;6276346;22;20413;-69
2022/03/18 03:30:05;;;;;;;19.27;15.60;;;10.70;53.10;;;;;;6276466;22;20018;-69
2022/03/18 03:32:32;;;;;;;25.25;15.85;;;10.70;53.10;;;;;;6276667;22;20521;-70
2022/03/18 03:34:58;;;;;;;22.88;16.10;;;10.70;53.40;;;;;;6276386;22;20339;-69
2022/03/18 03:37:25;;;;;;;32.92;16.10;;;10.60;53.60;;;;;;6276398;22;20002;-69
2022/03/18 03:39:51;;;;;;;22.10;15.52;;;10.70;53.70;;;;;;6276195;22;20031;-69
2022/03/18 03:42:18;;;;;;;21.98;16.00;;;10.60;53.60;;;;;;6276342;22;20324;-69
2022/03/18 03:44:43;;;;;;;19.92;15.68;;;10.70;53.70;;;;;;6277008;22;20330;-71
2022/03/18 03:47:09;;;;;;;22.48;16.05;;;10.70;54.10;;;;;;6276310;22;20010;-70
2022/03/18 03:49:35;;;;;;;30.20;15.30;;;10.70;53.70;;;;;;6276309;22;20010;-70
2022/03/18 03:52:00;;;;;;;19.73;15.80;;;10.70;53.70;;;;;;6276434;22;20003;-69
2022/03/18 03:54:29;;;;;;;20.15;14.75;;;10.60;53.70;;;;;;6276487;22;20058;-70
2022/03/18 03:56:55;;;;;;;20.17;15.70;;;10.60;53.90;;;;;;6276406;22;20031;-69
2022/03/18 03:59:21;;;;;;;19.83;14.13;;;10.60;53.70;;;;;;6275922;22;20061;-70
2022/03/18 04:01:48;;;;;;;21.13;13.95;;;10.60;53.70;;;;;;6275960;22;20007;-69
2022/03/18 04:04:13;;;;;;;25.63;14.10;;;10.60;53.60;;;;;;6276059;22;20042;-70
2022/03/18 04:06:39;;;;;;;28.10;14.13;;;10.60;53.80;;;;;;6276260;22;20050;-70
2022/03/18 04:09:05;;;;;;;19.02;13.80;;;10.60;54.00;;;;;;6275717;22;20000;-70
2022/03/18 04:11:30;;;;;;;19.35;13.68;;;10.50;54.10;;;;;;6275970;22;20303;-70
2022/03/18 04:13:56;;;;;;;20.98;12.57;;;10.60;54.00;;;;;;6276108;22;20034;-69
2022/03/18 04:16:22;;;;;;;20.23;12.63;;;10.50;53.60;;;;;;6276202;22;19996;-70
2022/03/18 04:18:49;;;;;;;19.20;12.40;;;10.50;53.60;;;;;;6276272;22;20031;-70
2022/03/18 04:21:14;;;;;;;14.52;11.68;;;10.50;54.00;;;;;;6276539;22;20003;-70
2022/03/18 04:23:41;;;;;;;15.50;11.52;;;10.60;53.80;;;;;;6278858;22;20012;-69
2022/03/18 04:26:07;;;;;;;19.17;12.23;;;10.60;53.50;;;;;;6278340;22;20422;-70
2022/03/18 04:28:33;;;;;;;18.00;11.48;;;10.50;53.70;;;;;;6278290;22;20006;-71
2022/03/18 04:30:58;;;;;;;16.20;10.98;;;10.50;53.40;;;;;;6277661;22;20338;-69
2022/03/18 04:33:24;;;;;;;19.77;11.73;;;10.50;53.40;;;;;;6278245;22;20006;-69
2022/03/18 04:35:51;;;;;;;16.80;12.20;;;10.60;53.40;;;;;;6278288;22;20011;-70
2022/03/18 04:38:17;;;;;;;16.40;12.00;;;10.60;53.30;;;;;;6278092;22;20054;-69
2022/03/18 04:40:43;;;;;;;18.88;10.68;;;10.60;53.30;;;;;;6278144;22;20000;-69
2022/03/18 04:43:08;;;;;;;17.83;10.20;;;10.60;53.40;;;;;;6277955;22;20007;-70
2022/03/18 04:45:35;;;;;;;15.68;11.20;;;10.50;53.00;;;;;;6278050;22;19999;-70
2022/03/18 04:48:00;;;;;;;14.20;10.40;;;10.60;52.80;;;;;;6277990;22;20478;-69
2022/03/18 04:50:27;;;;;;;17.45;11.45;;;10.60;52.30;;;;;;6278448;22;20050;-69
2022/03/18 04:52:53;;;;;;;15.40;11.38;;;10.50;52.50;;;;;;6278319;22;20004;-69
2022/03/18 04:55:19;;;;;;;13.60;10.75;;;10.50;52.70;;;;;;6277834;22;20011;-69
2022/03/18 04:57:44;;;;;;;16.92;10.65;;;10.60;52.60;;;;;;6278233;22;20024;-69
2022/03/18 05:00:12;;;;;;;17.25;10.30;;;10.60;52.90;;;;;;6278150;22;20482;-69
2022/03/18 05:02:38;;;;;;;14.23;10.48;;;10.60;52.40;;;;;;6277717;22;20006;-69
2022/03/18 05:05:10;;;;;;;16.70;10.60;;;10.60;52.30;;;;;;6277945;22;20004;-70
2022/03/18 05:07:39;;;;;;;14.90;10.75;;;10.60;52.10;;;;;;6277917;22;20046;-69
2022/03/18 05:10:07;;;;;;;15.15;10.68;;;10.60;52.20;;;;;;6277901;22;20494;-69
2022/03/18 05:12:32;;;;;;;16.67;10.98;;;10.50;52.30;;;;;;6278045;22;20074;-69
2022/03/18 05:14:58;;;;;;;17.77;10.82;;;10.50;52.40;;;;;;6277697;22;20399;-70
2022/03/18 05:17:24;;;;;;;12.77;10.68;;;10.50;52.90;;;;;;6278172;22;20000;-69
2022/03/18 05:19:49;;;;;;;17.70;11.45;;;10.50;52.80;;;;;;6277874;22;20061;-69
2022/03/18 05:22:15;;;;;;;17.92;11.60;;;10.50;52.70;;;;;;6277701;22;19999;-70
2022/03/18 05:24:41;;;;;;;16.98;11.15;;;10.60;52.50;;;;;;6277738;22;20003;-69
2022/03/18 05:27:07;;;;;;;17.30;11.15;;;10.60;52.40;;;;;;6277913;22;20003;-70
2022/03/18 05:29:33;;;;;;;20.05;11.68;;;10.60;52.40;;;;;;6277499;22;20018;-70
2022/03/18 05:32:00;;;;;;;16.77;10.90;;;10.70;52.60;;;;;;6277350;22;19995;-69
2022/03/18 05:34:26;;;;;;;14.68;11.43;;;10.70;52.30;;;;;;6277324;22;20031;-70
2022/03/18 05:36:52;;;;;;;20.55;11.88;;;10.70;52.10;;;;;;6277607;22;20003;-70
2022/03/18 05:39:18;;;;;;;16.40;11.48;;;10.70;52.30;;;;;;6277658;22;19996;-69
2022/03/18 05:41:44;;;;;;;15.13;10.55;;;10.70;52.40;;;;;;6277123;22;20016;-69
2022/03/18 05:44:10;;;;;;;13.05;10.05;;;10.70;52.30;;;;;;6277598;22;20051;-69
2022/03/18 05:46:36;;;;;;;25.48;11.48;;;10.80;51.90;;;;;;6277397;22;20003;-70
2022/03/18 05:49:03;;;;;;;23.42;10.85;;;10.80;51.80;;;;;;6277783;22;20415;-69
2022/03/18 05:51:30;;;;;;;12.88;9.90;;;10.80;51.90;;;;;;6277459;22;20019;-70
2022/03/18 05:53:55;;;;;;;11.35;9.52;;;10.80;51.90;;;;;;6277376;22;20000;-70
2022/03/18 05:59:08;;;;;;;14.82;9.85;;;10.80;52.20;;;;;;6277668;22;20358;-70
2022/03/18 06:01:37;;;;;;;16.10;10.25;;;10.70;52.30;;;;;;6277384;22;19999;-69
2022/03/18 06:04:04;;;;;;;12.07;9.35;;;10.70;52.40;;;;;;6277344;22;20323;-69
2022/03/18 06:06:30;;;;;;;13.13;9.70;;;10.60;52.50;;;;;;6277229;22;20000;-70
2022/03/18 06:11:59;;;;;;;12.98;9.30;;;10.70;52.20;;;;;;6277396;22;20214;-70
2022/03/18 06:14:27;;;;;;;16.95;9.13;;;10.70;52.00;;;;;;6277172;22;20006;-70
2022/03/18 06:16:55;;;;;;;14.57;8.98;;;10.70;52.50;;;;;;6277485;22;20484;-70
2022/03/18 06:19:21;;;;;;;13.93;8.98;;;10.70;52.50;;;;;;6277725;22;20311;-70
2022/03/18 06:21:47;;;;;;;14.25;9.07;;;10.70;52.30;;;;;;6277223;22;20026;-70
2022/03/18 06:24:14;;;;;;;12.30;9.38;;;10.70;52.50;;;;;;6277355;22;20434;-69
2022/03/18 06:26:40;;;;;;;14.60;9.38;;;10.70;52.50;;;;;;6277478;22;20369;-69
2022/03/18 06:29:07;;;;;;;18.80;8.88;;;10.70;53.00;;;;;;6276868;22;20035;-71
2022/03/18 06:31:33;;;;;;;12.70;8.88;;;10.70;53.10;;;;;;6276760;22;20008;-69
2022/03/18 06:34:00;;;;;;;19.73;8.77;;;10.70;53.30;;;;;;6277052;22;20031;-69
2022/03/18 06:36:26;;;;;;;20.00;9.20;;;10.80;53.00;;;;;;6277094;22;19999;-70
2022/03/18 06:38:52;;;;;;;13.48;8.85;;;10.80;52.20;;;;;;6276830;22;19999;-70
2022/03/18 06:41:19;;;;;;;12.40;8.52;;;10.80;52.90;;;;;;6276636;22;20091;-71
2022/03/18 06:43:46;;;;;;;14.88;9.18;;;10.80;52.90;;;;;;6276702;22;20019;-70
2022/03/18 06:46:12;;;;;;;11.23;8.50;;;10.90;53.10;;;;;;6276981;22;20373;-69
2022/03/18 06:48:38;;;;;;;14.57;8.90;;;10.90;52.60;;;;;;6277013;22;20011;-69
2022/03/18 06:51:03;;;;;;;13.63;9.30;;;10.90;51.60;;;;;;6276521;22;20038;-69
2022/03/18 06:53:29;;;;;;;14.38;8.57;;;11.00;51.70;;;;;;6276872;22;20053;-69
2022/03/18 06:55:55;;;;;;;14.60;8.90;;;11.00;51.50;;;;;;6276673;22;20003;-70
2022/03/18 06:58:20;;;;;;;13.65;8.57;;;11.10;51.10;;;;;;6276511;22;20312;-69
2022/03/18 07:00:46;;;;;;;16.58;9.10;;;11.20;51.10;;;;;;6276922;22;20006;-71
2022/03/18 07:03:13;;;;;;;14.60;8.90;;;11.20;50.60;;;;;;6276733;22;20097;-69
2022/03/18 07:05:39;;;;;;;13.48;8.80;;;11.30;50.80;;;;;;6276514;22;20007;-69
2022/03/18 07:08:05;;;;;;;13.90;8.02;;;11.30;51.20;;;;;;6276866;22;20045;-69
2022/03/18 07:10:31;;;;;;;15.95;9.40;;;11.30;50.60;;;;;;6276874;22;20091;-70
2022/03/18 07:12:57;;;;;;;13.50;9.38;;;11.40;50.70;;;;;;6276929;22;20023;-69
2022/03/18 07:15:22;;;;;;;12.85;9.50;;;11.40;50.60;;;;;;6276163;22;20004;-69
2022/03/18 07:18:01;;;;;;;11.75;8.90;;;11.50;50.90;;;;;;6276677;22;20004;-69
2022/03/18 07:20:29;;;;;;;15.43;8.60;;;11.50;50.20;;;;;;6276744;22;20121;-69
2022/03/18 07:22:59;;;;;;;11.30;8.40;;;11.50;50.00;;;;;;6275328;22;20082;-70
2022/03/18 07:25:24;;;;;;;18.98;9.25;;;11.60;50.00;;;;;;6274845;22;20073;-69
2022/03/18 07:27:50;;;;;;;12.93;9.38;;;11.60;50.30;;;;;;6276319;22;20422;-69
2022/03/18 07:30:16;;;;;;;11.77;8.55;;;11.70;49.60;;;;;;6275791;22;20390;-69
2022/03/18 07:32:41;;;;;;;22.27;8.65;;;11.70;50.10;;;;;;6248500;22;20063;-69
2022/03/18 07:35:08;;;;;;;14.35;8.82;;;11.80;50.20;;;;;;6275424;22;20011;-70
2022/03/18 07:37:33;;;;;;;17.08;9.07;;;11.80;50.50;;;;;;6275398;22;20271;-70
2022/03/18 07:39:59;;;;;;;15.30;9.55;;;11.90;49.30;;;;;;6275073;22;20031;-69
2022/03/18 07:42:25;;;;;;;11.85;9.20;;;11.90;49.80;;;;;;6275060;22;20517;-72
2022/03/18 07:44:50;;;;;;;21.60;9.60;;;11.90;49.60;;;;;;6273539;22;20046;-69
2022/03/18 07:47:17;;;;;;;12.05;9.45;;;12.00;49.60;;;;;;6275467;22;20000;-68
2022/03/18 07:49:42;;;;;;;15.02;9.30;;;12.00;49.60;;;;;;6275205;22;20000;-69
2022/03/18 07:52:08;;;;;;;16.35;8.95;;;12.10;49.90;;;;;;6275607;22;20010;-68
2022/03/18 07:54:35;;;;;;;15.77;10.38;;;12.10;50.00;;;;;;6275091;22;20023;-64
2022/03/18 07:57:00;;;;;;;14.40;10.35;;;12.20;49.30;;;;;;6275635;22;20008;-66
2022/03/18 07:59:26;;;;;;;17.40;10.95;;;12.30;48.90;;;;;;6275348;22;20023;-65
2022/03/18 08:01:52;;;;;;;13.23;9.82;;;12.30;49.10;;;;;;6274917;22;20007;-65
2022/03/18 08:04:17;;;;;;;16.88;10.23;;;12.40;49.60;;;;;;6274758;22;19996;-64
2022/03/18 08:06:43;;;;;;;23.83;10.57;;;12.50;48.90;;;;;;6275553;22;20004;-67
2022/03/18 08:09:09;;;;;;;14.65;9.73;;;12.50;48.30;;;;;;6274567;22;20303;-65
2022/03/18 08:11:35;;;;;;;12.02;9.27;;;12.60;48.50;;;;;;6275938;22;20002;-69
2022/03/18 08:14:00;;;;;;;14.77;9.57;;;12.70;48.20;;;;;;6275844;22;20065;-68
2022/03/18 08:16:26;;;;;;;13.20;9.15;;;12.70;48.00;;;;;;6275890;22;19996;-67
2022/03/18 08:18:54;;;;;;;19.98;10.35;;;12.70;47.80;;;;;;6275976;22;20023;-65
2022/03/18 08:21:20;;;;;;;14.15;9.70;;;12.80;48.10;;;;;;6275932;22;20079;-67
2022/03/18 08:23:46;;;;;;;15.35;10.13;;;12.90;48.90;;;;;;6275741;22;20363;-65
2022/03/18 08:26:11;;;;;;;12.40;9.05;;;13.00;46.60;;;;;;6275997;22;20011;-65
2022/03/18 08:28:37;;;;;;;11.93;9.60;;;13.00;46.00;;;;;;6275965;22;20000;-68
2022/03/18 08:31:03;;;;;;;17.58;10.40;;;13.00;46.10;;;;;;6274806;22;20016;-69
2022/03/18 08:33:29;;;;;;;18.65;10.32;;;13.00;46.40;;;;;;6275142;22;20008;-71
2022/03/18 08:35:57;;;;;;;15.82;11.25;;;13.10;46.80;;;;;;6276286;22;20000;-71
2022/03/18 08:38:22;;;;;;;16.20;10.95;;;13.10;46.50;;;;;;6276393;22;20023;-68
2022/03/18 08:40:48;;;;;;;19.77;9.65;;;13.10;46.60;;;;;;6276063;22;20000;-68
2022/03/18 08:43:13;;;;;;;11.90;9.35;;;13.20;46.60;;;;;;6273427;22;20003;-70
2022/03/18 08:45:39;;;;;;;20.25;10.00;;;13.20;46.50;;;;;;6274640;22;20430;-69
2022/03/18 08:48:06;;;;;;;13.52;10.25;;;13.30;46.60;;;;;;6275814;22;20325;-69
2022/03/18 08:50:33;;;;;;;13.65;10.18;;;13.40;46.80;;;;;;6275822;22;20106;-69
2022/03/18 08:52:58;;;;;;;16.63;10.55;;;13.50;45.70;;;;;;6275431;22;20007;-69
2022/03/18 08:55:25;;;;;;;16.55;11.20;;;13.50;44.80;;;;;;6274978;22;20057;-69
2022/03/18 08:57:51;;;;;;;16.17;10.52;;;13.40;46.10;;;;;;6275787;22;20380;-70
2022/03/18 09:00:18;;;;;;;15.55;10.15;;;13.40;46.20;;;;;;6275989;22;20027;-70
2022/03/18 09:02:46;;;;;;;17.80;10.40;;;13.40;46.80;;;;;;6248422;22;20631;-71
2022/03/18 09:05:12;;;;;;;16.95;10.27;;;13.50;46.80;;;;;;6275819;22;20004;-69
2022/03/18 09:07:39;;;;;;;15.93;9.75;;;13.50;44.80;;;;;;6276664;22;20003;-69
2022/03/18 09:10:06;;;;;;;17.20;10.25;;;13.60;44.90;;;;;;6277665;22;20019;-69
2022/03/18 09:12:32;;;;;;;13.10;9.13;;;13.60;46.00;;;;;;6277349;22;20137;-69
2022/03/18 09:14:58;;;;;;;15.68;9.52;;;13.70;45.00;;;;;;6277373;22;20027;-68
2022/03/18 09:17:25;;;;;;;12.85;9.02;;;13.80;43.70;;;;;;6250132;22;20012;-69
2022/03/18 09:19:51;;;;;;;17.40;8.77;;;13.70;43.20;;;;;;6277088;22;20034;-69
2022/03/18 09:22:17;;;;;;;10.68;8.93;;;13.70;43.10;;;;;;6277009;22;20477;-70
2022/03/18 09:24:45;;;;;;;19.27;8.20;;;13.70;43.90;;;;;;6277486;22;20014;-70
2022/03/18 09:27:11;;;;;;;18.90;8.43;;;13.80;43.40;;;;;;6276657;22;20014;-69
2022/03/18 09:29:37;;;;;;;15.32;9.25;;;13.90;42.70;;;;;;6277247;22;20039;-70
2022/03/18 09:32:06;;;;;;;11.95;8.05;;;13.90;42.20;;;;;;6277065;22;20006;-69
2022/03/18 09:34:32;;;;;;;14.57;8.52;;;13.90;43.60;;;;;;6277297;22;20014;-74
2022/03/18 09:36:58;;;;;;;11.45;8.63;;;14.00;42.10;;;;;;6231849;22;20899;-73
2022/03/18 09:39:26;;;;;;;13.32;8.43;;;14.00;42.30;;;;;;6276921;22;19996;-69
2022/03/18 09:41:53;;;;;;;13.00;8.35;;;14.10;42.80;;;;;;6277483;22;20015;-69
2022/03/18 09:44:20;;;;;;;12.80;8.00;;;14.20;42.20;;;;;;6277455;22;20056;-72
2022/03/18 09:46:47;;;;;;;13.43;8.68;;;14.20;41.30;;;;;;6277969;22;20374;-69
2022/03/18 09:49:15;;;;;;;12.20;7.85;;;14.20;41.80;;;;;;6277492;22;20427;-71
2022/03/18 09:51:43;;;;;;;14.32;8.02;;;;;;;;;;6277517;22;20035;-74
2022/03/18 09:54:10;;;;;;;9.25;8.20;;;14.40;42.50;;;;;;6277214;22;19999;-70
2022/03/18 09:56:41;;;;;;;12.60;9.00;;;14.50;42.10;;;;;;6277860;22;20073;-69
2022/03/18 09:59:07;;;;;;;12.38;9.00;;;14.60;41.70;;;;;;6277660;22;20007;-75
2022/03/18 10:01:33;;;;;;;13.82;9.50;;;14.70;41.20;;;;;;6277472;22;20422;-70
2022/03/18 10:04:07;;;;;;;13.63;9.77;;;14.70;41.70;;;;;;6277386;22;20087;-73
2022/03/18 10:06:34;;;;;;;15.40;8.98;;;14.80;40.90;;;;;;6277476;22;20004;-69
2022/03/18 10:09:01;;;;;;;12.88;8.75;;;14.80;41.50;;;;;;6277037;22;20068;-69
2022/03/18 10:11:33;;;;;;;15.65;9.93;;;14.90;41.00;;;;;;6277230;22;20019;-69
2022/03/18 10:14:08;;;;;;;13.02;9.35;;;14.90;40.60;;;;;;6277627;22;20003;-70
2022/03/18 10:16:40;;;;;;;17.42;9.52;;;14.90;41.10;;;;;;6277298;22;20000;-69
2022/03/18 10:19:45;;;;;;;12.05;8.05;;;15.00;41.10;;;;;;6277231;22;20323;-69
2022/03/18 10:22:10;;;;;;;16.40;9.95;;;15.00;39.20;;;;;;6277759;22;20399;-70
2022/03/18 10:24:38;;;;;;;10.85;8.85;;;15.00;40.30;;;;;;6276930;22;20031;-72
2022/03/18 10:27:25;;;;;;;18.05;9.65;;;15.10;40.30;;;;;;6275103;22;20403;-69
2022/03/18 10:29:54;;;;;;;17.10;9.07;;;15.10;40.80;;;;;;6275396;22;20099;-70
2022/03/18 10:32:23;;;;;;;15.55;10.35;;;15.20;40.80;;;;;;6276974;22;19999;-69
2022/03/18 10:37:41;;;;;;;14.80;9.82;;;15.40;40.30;;;;;;6276711;22;20030;-72
2022/03/18 10:40:08;;;;;;;24.05;10.60;;;15.40;39.40;;;;;;6277068;22;20334;-69
2022/03/18 10:42:34;;;;;;;11.43;8.77;;;15.30;38.70;;;;;;6276763;22;20012;-69
2022/03/18 10:45:02;;;;;;;15.95;9.40;;;15.30;39.70;;;;;;6276635;22;20006;-70
2022/03/18 10:47:43;;;;;;;14.20;10.10;;;15.30;39.00;;;;;;6276928;22;20441;-70
2022/03/18 10:50:11;;;;;;;16.67;8.50;;;15.40;39.20;;;;;;6277080;22;20008;-69
2022/03/18 10:52:41;;;;;;;19.75;9.70;;;15.40;39.40;;;;;;6276891;22;19996;-70
2022/03/18 10:55:20;;;;;;;13.48;9.93;;;15.40;39.50;;;;;;6276921;22;20004;-69
2022/03/18 10:57:54;;;;;;;19.70;9.27;;;15.50;39.60;;;;;;6276667;22;20326;-68
2022/03/18 11:00:21;;;;;;;15.52;9.00;;;15.50;39.70;;;;;;6277018;22;20003;-68
2022/03/18 11:02:49;;;;;;;16.17;9.40;;;15.60;39.70;;;;;;6277148;22;20007;-67
2022/03/18 11:05:19;;;;;;;23.05;11.13;;;15.60;39.20;;;;;;6276862;22;20015;-67
2022/03/18 11:07:47;;;;;;;17.98;9.70;;;15.60;39.30;;;;;;6276889;22;20335;-67
2022/03/18 11:13:03;;;;;;;19.52;9.38;;;15.50;40.50;;;;;;6276606;22;20465;-68
2022/03/18 11:15:34;;;;;;;13.35;8.85;;;15.60;39.90;;;;;;6276361;22;20074;-68
2022/03/18 11:18:04;;;;;;;12.52;9.32;;;15.70;39.20;;;;;;6276713;22;20000;-67
2022/03/18 11:20:33;;;;;;;15.55;8.75;;;15.70;39.00;;;;;;6276792;22;20065;-67
2022/03/18 11:22:59;;;;;;;10.63;8.20;;;15.80;39.60;;;;;;6276845;22;20020;-67
2022/03/18 11:25:28;;;;;;;13.45;8.82;;;15.90;39.20;;;;;;6276777;22;20338;-67
2022/03/18 11:27:56;;;;;;;14.15;8.52;;;16.00;38.00;;;;;;6276453;22;19996;-67
2022/03/18 11:30:28;;;;;;;21.02;9.02;;;16.10;37.90;;;;;;6276682;22;20422;-68
2022/03/18 11:33:06;;;;;;;9.50;8.50;;;16.10;38.70;;;;;;6276226;22;20022;-67
2022/03/18 11:36:00;;;;;;;13.50;9.57;;;16.20;38.90;;;;;;6276291;22;20376;-74
2022/03/18 11:38:47;;;;;;;15.18;8.88;;;16.40;37.20;;;;;;6250198;22;20019;-67
2022/03/18 11:41:14;;;;;;;13.02;9.15;;;16.30;38.00;;;;;;6275871;22;20016;-68
2022/03/18 11:43:42;;;;;;;12.48;8.93;;;16.40;38.10;;;;;;6276397;22;20087;-68
2022/03/18 11:46:14;;;;;;;21.42;8.52;;;16.40;39.10;;;;;;6276684;22;20010;-67
2022/03/18 11:48:46;;;;;;;17.70;8.55;;;16.40;38.00;;;;;;6276461;22;20487;-68
2022/03/18 11:51:31;;;;;;;20.25;8.73;;;16.40;38.20;;;;;;6276438;22;20039;-73
2022/03/18 11:54:12;;;;;;;15.52;9.63;;;16.40;37.50;;;;;;6276431;22;19999;-67
2022/03/18 11:56:52;;;;;;;23.83;9.55;;;16.30;37.80;;;;;;6276258;22;20017;-74
2022/03/18 11:59:31;;;;;;;13.93;9.35;;;16.20;38.20;;;;;;6275577;22;20007;-68
2022/03/18 12:02:03;;;;;;;15.52;9.40;;;16.10;38.20;;;;;;6276811;22;20004;-67
2022/03/18 12:04:44;;;;;;;12.43;10.07;;;16.10;39.00;;;;;;6276796;22;20000;-67
2022/03/18 12:07:15;;;;;;;17.55;9.93;;;16.20;38.40;;;;;;6276175;22;19996;-68
2022/03/18 12:09:58;;;;;;;16.27;9.68;;;16.20;38.90;;;;;;6275762;22;20520;-67
2022/03/18 12:12:37;;;;;;;24.13;9.68;;;16.20;38.00;;;;;;6275519;22;20500;-67
2022/03/18 12:15:11;;;;;;;18.98;10.30;;;16.20;38.10;;;;;;6272147;22;20026;-68
2022/03/18 12:17:55;;;;;;;13.02;9.77;;;16.20;38.30;;;;;;6272205;22;20102;-67
2022/03/18 12:20:21;;;;;;;18.35;9.20;;;16.20;38.10;;;;;;6275518;22;20006;-68
2022/03/18 12:22:50;;;;;;;15.73;9.57;;;16.20;38.00;;;;;;6275535;22;20327;-67
2022/03/18 12:25:16;;;;;;;15.68;8.73;;;16.20;37.10;;;;;;6276010;22;20035;-68
2022/03/18 12:27:44;;;;;;;17.88;9.52;;;16.30;38.30;;;;;;6275365;22;20029;-68
2022/03/18 12:30:20;;;;;;;14.27;7.75;;;16.40;37.60;;;;;;6275664;22;20035;-67
2022/03/18 12:32:58;;;;;;;15.35;8.82;;;16.50;37.30;;;;;;6276004;22;19996;-67
2022/03/18 12:35:31;;;;;;;13.25;8.73;;;16.50;37.10;;;;;;6275631;22;19999;-67
2022/03/18 12:38:11;;;;;;;21.10;9.52;;;16.60;37.00;;;;;;6274171;22;20078;-67
2022/03/18 12:40:40;;;;;;;13.48;8.75;;;16.60;36.80;;;;;;6271801;22;20122;-71
2022/03/18 12:43:06;;;;;;;20.65;8.65;;;16.60;36.90;;;;;;6273354;22;20027;-75
2022/03/18 12:45:36;;;;;;;15.27;8.15;;;16.70;36.80;;;;;;6276614;22;20122;-67
2022/03/18 12:48:06;;;;;;;11.63;8.43;;;16.80;36.50;;;;;;6277977;22;20062;-68
2022/03/18 12:50:44;;;;;;;15.18;8.63;;;16.90;35.60;;;;;;6277679;22;20011;-68
2022/03/18 12:53:14;;;;;;;14.10;8.35;;;16.90;35.60;;;;;;6277498;22;20062;-67
2022/03/18 12:55:41;;;;;;;13.98;9.15;;;16.90;35.30;;;;;;6278013;22;20008;-67
2022/03/18 12:58:07;;;;;;;13.93;8.05;;;16.90;35.50;;;;;;6277600;22;20071;-71